Time;durP1;ratioP1;P1;durP2;ratioP2;P2;SDS_P1;SDS_P2;PMS_P1;PMS_P2;Temp;Humidity;BMP_temperature;BMP_pressure;BME280_temperature;BME280_humidity;BME280_pressure;Samples;Min_cycle;Max_cycle;Signal;HPM_P1;HPM_P2
2021/12/22 00:02:25;;;;;;;28.37;10.73;;;;;;;-11.11;100.00;100341.26;1772603;80;21033;-71
2021/12/22 00:04:53;;;;;;;29.37;11.27;;;;;;;-11.12;100.00;100346.75;1768350;80;21009;-71
2021/12/22 00:07:20;;;;;;;19.60;8.60;;;;;;;-11.11;100.00;100345.07;1752588;81;21017;-72
2021/12/22 00:09:47;;;;;;;20.67;8.10;;;;;;;-11.11;100.00;100342.53;1752895;81;21075;-73
2021/12/22 00:12:15;;;;;;;20.90;9.20;;;;;;;-11.11;100.00;100346.34;1752624;81;21145;-72
2021/12/22 00:14:42;;;;;;;27.77;10.93;;;;;;;-11.11;100.00;100351.43;1752880;81;20994;-72
2021/12/22 00:17:10;;;;;;;17.70;8.83;;;;;;;-11.14;100.00;100341.11;1752529;81;21024;-73
2021/12/22 00:19:36;;;;;;;25.70;9.83;;;;;;;-11.13;100.00;100345.38;1752638;81;21036;-73
2021/12/22 00:22:03;;;;;;;27.00;10.50;;;;;;;-11.11;100.00;100339.98;1783172;80;21012;-72
2021/12/22 00:24:34;;;;;;;22.47;9.67;;;;;;;-11.08;100.00;100349.07;1784163;80;21390;-73
2021/12/22 00:27:00;;;;;;;23.50;9.93;;;;;;;-11.07;100.00;100338.09;1783758;80;21028;-73
2021/12/22 00:29:27;;;;;;;26.97;10.07;;;;;;;-11.08;100.00;100351.61;1783880;80;21115;-72
2021/12/22 00:34:34;;;;;;;18.67;8.00;;;;;;;-11.20;100.00;100351.44;1737299;80;21021;-73
2021/12/22 00:37:00;;;;;;;26.27;11.00;;;;;;;-11.25;100.00;100350.70;1778027;80;21117;-72
2021/12/22 00:39:27;;;;;;;21.67;9.80;;;;;;;-11.30;100.00;100352.13;1777957;80;21563;-73
2021/12/22 00:41:53;;;;;;;24.10;10.30;;;;;;;-11.32;100.00;100360.06;1778014;80;21465;-72
2021/12/22 00:44:23;;;;;;;19.90;8.37;;;;;;;-11.33;100.00;100362.14;1741017;82;21065;-71
2021/12/22 00:46:50;;;;;;;19.87;9.20;;;;;;;-11.32;100.00;100355.84;1714808;83;21074;-72
2021/12/22 00:49:16;;;;;;;20.23;8.83;;;;;;;-11.32;100.00;100357.11;1778270;80;21048;-74
2021/12/22 00:51:43;;;;;;;26.03;10.90;;;;;;;-11.30;100.00;100358.08;1777991;80;21616;-73
2021/12/22 00:54:09;;;;;;;23.23;9.77;;;;;;;-11.31;100.00;100361.42;1720210;82;21086;-74
2021/12/22 00:56:37;;;;;;;26.70;10.40;;;;;;;-11.30;100.00;100362.30;1753162;81;21096;-73
2021/12/22 00:59:04;;;;;;;20.37;9.63;;;;;;;-11.30;100.00;100360.62;1747635;82;21013;-72
2021/12/22 01:01:31;;;;;;;23.47;9.27;;;;;;;-11.29;100.00;100357.30;1766476;80;21135;-74
2021/12/22 01:03:58;;;;;;;24.87;9.23;;;;;;;-11.27;100.00;100360.80;1778356;80;21064;-72
2021/12/22 01:06:25;;;;;;;18.00;8.17;;;;;;;-11.25;100.00;100368.12;1778203;80;21069;-72
2021/12/22 01:08:51;;;;;;;19.73;8.47;;;;;;;-11.21;100.00;100358.57;1778533;80;21061;-72
2021/12/22 01:11:18;;;;;;;15.50;8.10;;;;;;;-11.15;100.00;100362.26;1778391;80;21093;-71
2021/12/22 01:13:44;;;;;;;19.30;8.40;;;;;;;-11.10;100.00;100364.64;1778257;80;21517;-71
2021/12/22 01:16:11;;;;;;;16.23;7.37;;;;;;;-11.05;100.00;100364.48;1777879;80;22135;-71
2021/12/22 01:18:39;;;;;;;18.13;8.13;;;;;;;-10.98;100.00;100364.01;1778263;80;21060;-70
2021/12/22 01:23:39;;;;;;;17.37;7.47;;;;;;;-10.95;100.00;100356.52;1777920;80;21063;-71
2021/12/22 01:26:04;;;;;;;14.43;7.22;;;;;;;-10.93;100.00;100358.75;1777653;80;21129;-71
2021/12/22 01:28:31;;;;;;;19.13;7.67;;;;;;;-10.90;100.00;100365.30;1777500;80;21152;-71
2021/12/22 01:31:02;;;;;;;18.73;7.50;;;;;;;-10.89;100.00;100369.58;1778131;80;21081;-71
2021/12/22 01:33:25;;;;;;;19.93;8.03;;;;;;;-10.85;100.00;100374.04;1776844;80;21179;-70
2021/12/22 01:35:52;;;;;;;14.53;6.63;;;;;;;-10.81;100.00;100370.87;1778130;80;21019;-71
2021/12/22 01:38:19;;;;;;;17.53;7.23;;;;;;;-10.75;100.00;100373.25;1777970;80;21142;-71
2021/12/22 01:40:47;;;;;;;17.40;7.87;;;;;;;-10.73;100.00;100376.75;1778165;80;21456;-71
2021/12/22 01:43:14;;;;;;;15.80;7.33;;;;;;;-10.70;100.00;100381.58;1777922;80;21052;-70
2021/12/22 01:46:20;;;;;;;16.87;7.50;;;;;;;-10.69;100.00;100374.84;1776209;80;21106;-71
2021/12/22 01:49:12;;;;;;;14.93;6.47;;;;;;;-10.68;100.00;100382.95;1736912;82;21092;-71
2021/12/22 01:51:54;;;;;;;17.27;6.73;;;;;;;-10.70;100.00;100390.89;1740988;82;21158;-70
2021/12/22 01:54:42;;;;;;;12.10;6.10;;;;;;;-10.77;100.00;100395.66;1740903;82;21034;-72
2021/12/22 01:57:11;;;;;;;19.17;7.50;;;;;;;-10.83;100.00;100399.17;1764821;80;21561;-71
2021/12/22 01:59:41;;;;;;;17.25;7.72;;;;;;;-10.92;100.00;100399.95;1778548;80;21032;-70
2021/12/22 02:02:09;;;;;;;15.50;6.93;;;;;;;-11.00;100.00;100401.20;1773353;80;21080;-69
2021/12/22 02:04:38;;;;;;;18.80;6.97;;;;;;;-11.07;100.00;100401.27;1747030;82;21131;-71
2021/12/22 02:07:06;;;;;;;16.03;7.03;;;;;;;-11.15;100.00;100401.27;1747202;82;21520;-71
2021/12/22 02:12:00;;;;;;;18.60;7.93;;;;;;;-11.29;100.00;100404.34;1747117;82;21025;-70
2021/12/22 02:14:27;;;;;;;19.20;7.47;;;;;;;-11.37;100.00;100406.84;1747304;82;21582;-72
2021/12/22 02:16:54;;;;;;;15.80;8.37;;;;;;;-11.43;100.00;100407.80;1747187;82;21130;-72
2021/12/22 02:19:20;;;;;;;17.57;9.07;;;;;;;-11.49;100.00;100406.17;1747055;82;20985;-71
2021/12/22 02:21:52;;;;;;;11.50;6.93;;;;;;;-11.54;100.00;100415.22;1747083;82;21646;-73
2021/12/22 02:24:16;;;;;;;13.97;6.57;;;;;;;-11.57;100.00;100411.21;1746425;82;21037;-72
2021/12/22 02:26:56;;;;;;;17.57;6.60;;;;;;;-11.62;100.00;100411.86;1747058;82;21622;-76
2021/12/22 02:29:34;;;;;;;16.20;7.47;;;;;;;-11.69;100.00;100413.55;1744458;82;21576;-74
2021/12/22 02:32:37;;;;;;;20.17;7.33;;;;;;;-11.75;100.00;100414.50;1744724;82;21108;-74
2021/12/22 02:34:22;;;;;;;19.03;7.43;;;;;;;-11.80;100.00;100411.19;1756244;80;21591;-75
2021/12/22 02:36:51;;;;;;;21.23;9.20;;;;;;;-11.83;100.00;100409.36;1783656;80;21552;-74
2021/12/22 02:39:17;;;;;;;19.43;8.03;;;;;;;-11.81;100.00;100407.78;1784183;80;21041;-73
2021/12/22 02:41:43;;;;;;;19.40;7.70;;;;;;;-11.82;100.00;100412.00;1761642;80;21689;-75
2021/12/22 02:44:11;;;;;;;22.13;8.70;;;;;;;-11.82;100.00;100412.40;1768007;80;20986;-75
2021/12/22 02:46:39;;;;;;;18.93;8.43;;;;;;;-11.82;100.00;100421.29;1783843;80;21055;-75
2021/12/22 02:49:08;;;;;;;21.80;8.23;;;;;;;-11.85;100.00;100418.55;1769677;80;21039;-75
2021/12/22 02:51:35;;;;;;;17.75;7.30;;;;;;;-11.82;100.00;100424.70;1752771;81;21023;-76
2021/12/22 02:54:15;;;;;;;16.97;7.50;;;;;;;-11.79;100.00;100429.08;1752933;81;21131;-72
2021/12/22 02:56:50;;;;;;;18.43;8.07;;;;;;;-11.78;100.00;100420.65;1751960;81;21005;-74
2021/12/22 03:04:21;;;;;;;15.43;6.53;;;;;;;-11.66;100.00;100433.20;1752768;81;21623;-73
2021/12/22 03:07:04;;;;;;;18.53;8.03;;;;;;;-11.59;100.00;100430.21;1752822;81;21458;-74
2021/12/22 03:09:31;;;;;;;18.83;7.90;;;;;;;-11.54;100.00;100437.69;1752111;81;21074;-74
2021/12/22 03:12:01;;;;;;;16.55;8.40;;;;;;;-11.51;100.00;100433.17;1752779;81;21115;-72
2021/12/22 03:14:29;;;;;;;14.80;7.83;;;;;;;-11.50;100.00;100434.91;1752763;81;21564;-72
2021/12/22 03:16:56;;;;;;;16.53;8.03;;;;;;;-11.49;100.00;100431.59;1752593;81;21028;-72
2021/12/22 03:19:28;;;;;;;17.20;7.57;;;;;;;-11.47;100.00;100433.83;1752935;81;21156;-72
2021/12/22 03:22:01;;;;;;;16.10;6.97;;;;;;;-11.45;100.00;100434.80;1752629;81;21131;-72
2021/12/22 03:24:24;;;;;;;15.47;7.20;;;;;;;-11.42;100.00;100434.55;1751992;81;21006;-72
2021/12/22 03:26:51;;;;;;;19.40;8.67;;;;;;;-11.36;100.00;100434.03;1752468;81;21068;-72
2021/12/22 03:29:18;;;;;;;22.87;8.50;;;;;;;-11.30;100.00;100438.16;1752797;81;21048;-71
2021/12/22 03:31:46;;;;;;;17.33;6.70;;;;;;;-11.26;100.00;100443.91;1752604;81;21111;-72
2021/12/22 03:34:14;;;;;;;18.30;9.03;;;;;;;-11.22;100.00;100443.29;1752857;81;21076;-73
2021/12/22 03:36:42;;;;;;;19.63;7.63;;;;;;;-11.13;100.00;100449.65;1752669;81;21052;-71
2021/12/22 03:39:10;;;;;;;17.33;8.17;;;;;;;-11.06;100.00;100444.13;1752738;81;21068;-71
2021/12/22 03:41:39;;;;;;;18.33;8.20;;;;;;;-11.06;100.00;100449.22;1752839;81;21108;-70
2021/12/22 03:44:08;;;;;;;16.80;7.87;;;;;;;-11.07;100.00;100458.89;1752620;81;21818;-72
2021/12/22 03:46:36;;;;;;;23.67;9.40;;;;;;;-11.12;100.00;100455.23;1752722;81;21539;-74
2021/12/22 03:49:06;;;;;;;12.97;6.57;;;;;;;-11.16;100.00;100464.75;1752664;81;21060;-71
2021/12/22 03:51:33;;;;;;;16.85;7.37;;;;;;;-11.23;100.00;100460.59;1752552;81;21075;-72
2021/12/22 03:54:00;;;;;;;20.70;8.53;;;;;;;-11.30;100.00;100461.05;1752664;81;21115;-74
2021/12/22 03:56:26;;;;;;;16.97;8.00;;;;;;;-11.35;100.00;100461.59;1771349;80;21137;-74
2021/12/22 03:58:53;;;;;;;18.03;7.77;;;;;;;-11.40;100.00;100467.69;1783974;80;21646;-74
2021/12/22 04:01:19;;;;;;;18.00;7.17;;;;;;;-11.49;100.00;100465.91;1783514;80;21504;-74
2021/12/22 04:03:50;;;;;;;23.97;9.00;;;;;;;-11.56;100.00;100475.25;1783622;80;21021;-72
2021/12/22 04:06:15;;;;;;;19.07;8.80;;;;;;;-11.66;100.00;100476.39;1783242;80;21111;-72
2021/12/22 04:08:41;;;;;;;16.47;7.80;;;;;;;-11.77;100.00;100478.31;1783924;80;22450;-72
2021/12/22 04:11:09;;;;;;;16.73;7.53;;;;;;;-11.86;100.00;100479.05;1783530;80;21025;-73
2021/12/22 04:13:35;;;;;;;21.67;8.10;;;;;;;-11.93;100.00;100483.33;1783824;80;21021;-74
2021/12/22 04:16:02;;;;;;;17.13;7.03;;;;;;;-12.00;100.00;100478.68;1783544;80;21532;-74
2021/12/22 04:18:30;;;;;;;15.47;7.47;;;;;;;-12.04;100.00;100477.21;1783747;80;21098;-72
2021/12/22 04:20:57;;;;;;;20.73;8.43;;;;;;;-12.04;100.00;100486.09;1783716;80;21084;-73
2021/12/22 04:23:25;;;;;;;19.47;7.97;;;;;;;-12.06;100.00;100483.86;1783255;80;21107;-73
2021/12/22 04:25:52;;;;;;;16.90;6.67;;;;;;;-12.07;100.00;100480.84;1783670;80;21040;-72
2021/12/22 04:28:18;;;;;;;16.53;8.03;;;;;;;-12.05;100.00;100483.49;1783530;80;21488;-72
2021/12/22 04:30:48;;;;;;;17.17;7.83;;;;;;;-12.02;100.00;100490.01;1783649;80;21044;-72
2021/12/22 04:33:19;;;;;;;21.17;7.78;;;;;;;-12.00;100.00;100481.22;1783751;80;21167;-73
2021/12/22 04:35:47;;;;;;;16.40;6.83;;;;;;;-11.94;100.00;100492.59;1784003;80;21567;-72
2021/12/22 04:38:13;;;;;;;23.97;9.37;;;;;;;-11.94;100.00;100493.86;1783561;80;21080;-72
2021/12/22 04:40:41;;;;;;;22.40;8.80;;;;;;;-11.95;100.00;100492.52;1775389;80;21531;-74
2021/12/22 04:43:08;;;;;;;18.57;8.53;;;;;;;-11.93;100.00;100501.11;1752555;81;21056;-74
2021/12/22 04:45:35;;;;;;;17.57;7.57;;;;;;;-11.96;100.00;100498.36;1771976;80;21112;-73
2021/12/22 04:50:27;;;;;;;17.93;7.30;;;;;;;-11.88;100.00;100501.84;1795953;79;26392;-73
2021/12/22 04:53:04;;;;;;;16.10;6.60;;;;;;;-11.97;100.00;100497.50;1755569;81;20996;-73
2021/12/22 04:55:28;;;;;;;15.40;6.60;;;;;;;-11.84;100.00;100511.77;1755165;81;21094;-73
2021/12/22 04:57:55;;;;;;;14.13;6.50;;;;;;;-11.79;100.00;100512.91;1755551;81;21055;-74
2021/12/22 05:00:23;;;;;;;14.03;6.40;;;;;;;-11.74;100.00;100516.59;1754520;81;21437;-73
2021/12/22 05:02:49;;;;;;;14.20;6.23;;;;;;;-11.70;100.00;100520.20;1730202;82;21077;-77
2021/12/22 05:05:16;;;;;;;14.03;6.47;;;;;;;-11.67;100.00;100523.77;1711905;82;21492;-66
2021/12/22 05:07:43;;;;;;;11.07;5.90;;;;;;;-11.70;100.00;100515.98;1707461;83;21087;-68
2021/12/22 05:10:10;;;;;;;18.27;6.10;;;;;;;-11.63;100.00;100522.30;1717431;83;21642;-67
2021/12/22 05:12:39;;;;;;;11.60;5.37;;;;;;;-11.59;100.00;100523.33;1720503;83;21072;-66
2021/12/22 05:15:08;;;;;;;16.00;5.40;;;;;;;-11.57;100.00;100529.02;1702459;83;20989;-69
2021/12/22 05:20:14;;;;;;;13.90;5.40;;;;;;;-11.49;100.00;100529.45;1680751;84;21189;-69
2021/12/22 05:22:41;;;;;;;14.67;5.83;;;;;;;-11.45;100.00;100532.66;1670846;84;21107;-68
2021/12/22 05:25:10;;;;;;;14.87;5.70;;;;;;;-11.41;100.00;100537.09;1693684;84;21176;-68
2021/12/22 05:27:37;;;;;;;12.67;5.40;;;;;;;-11.35;100.00;100534.92;1670096;84;21049;-67
2021/12/22 05:30:06;;;;;;;11.63;5.50;;;;;;;-11.28;100.00;100539.55;1693677;84;21104;-68
2021/12/22 05:32:35;;;;;;;15.63;6.20;;;;;;;-11.24;100.00;100541.48;1673635;84;21055;-67
2021/12/22 05:35:06;;;;;;;14.87;5.77;;;;;;;-11.20;100.00;100538.73;1670617;85;21761;-67
2021/12/22 05:37:33;;;;;;;10.78;5.47;;;;;;;-11.15;100.00;100542.81;1666188;85;21099;-67
2021/12/22 05:39:59;;;;;;;10.10;5.87;;;;;;;-11.12;100.00;100542.97;1663743;85;21088;-71
2021/12/22 05:42:26;;;;;;;19.63;6.70;;;;;;;-11.11;100.00;100544.34;1663653;85;21504;-70
2021/12/22 05:44:53;;;;;;;13.90;5.93;;;;;;;-11.11;100.00;100540.53;1678472;85;22062;-69
2021/12/22 05:47:20;;;;;;;15.10;7.30;;;;;;;-11.13;100.00;100547.19;1694930;84;21109;-70
2021/12/22 05:49:48;;;;;;;14.20;6.57;;;;;;;-11.13;100.00;100547.56;1711830;83;21078;-69
2021/12/22 05:52:15;;;;;;;16.60;7.57;;;;;;;-11.15;100.00;100553.85;1696093;83;21638;-68
2021/12/22 05:54:42;;;;;;;20.30;6.83;;;;;;;-11.20;100.00;100558.68;1711883;83;21122;-68
2021/12/22 05:57:08;;;;;;;17.43;7.13;;;;;;;-11.24;100.00;100563.10;1685385;84;21136;-70
2021/12/22 05:59:35;;;;;;;20.43;8.77;;;;;;;-11.24;100.00;100563.10;1690846;84;21063;-70
2021/12/22 06:02:02;;;;;;;15.30;7.37;;;;;;;-11.21;100.00;100567.08;1716053;83;21539;-69
2021/12/22 06:04:29;;;;;;;13.63;7.50;;;;;;;-11.15;100.00;100573.33;1719142;83;21067;-69
2021/12/22 06:06:57;;;;;;;16.43;8.00;;;;;;;-11.05;100.00;100576.86;1690052;84;21103;-69
2021/12/22 06:09:23;;;;;;;20.87;7.37;;;;;;;-11.01;100.00;100583.88;1715737;83;21125;-70
2021/12/22 06:11:51;;;;;;;16.83;6.53;;;;;;;-10.93;100.00;100580.48;1690124;84;21092;-69
2021/12/22 06:14:18;;;;;;;15.30;7.60;;;;;;;-10.89;100.00;100584.96;1700098;83;21052;-70
2021/12/22 06:16:44;;;;;;;15.27;7.57;;;;;;;-10.87;100.00;100599.52;1700318;83;21104;-69
2021/12/22 06:19:15;;;;;;;13.97;7.00;;;;;;;-10.87;100.00;100593.56;1704568;83;21146;-69
2021/12/22 06:21:39;;;;;;;12.17;6.30;;;;;;;-10.86;100.00;100598.71;1705079;83;21159;-69
2021/12/22 06:24:08;;;;;;;15.10;7.13;;;;;;;-10.79;100.00;100598.30;1705962;83;21112;-69
2021/12/22 06:26:35;;;;;;;14.77;7.20;;;;;;;-10.72;100.00;100608.79;1701976;83;21587;-70
2021/12/22 06:29:02;;;;;;;14.73;6.73;;;;;;;-10.66;100.00;100610.41;1712327;83;21068;-70
2021/12/22 06:31:28;;;;;;;12.97;6.70;;;;;;;-10.66;100.00;100612.96;1699780;83;21028;-71
2021/12/22 06:33:55;;;;;;;15.30;6.23;;;;;;;-10.62;100.00;100616.16;1701486;83;21139;-69
2021/12/22 06:36:21;;;;;;;15.07;6.40;;;;;;;-10.59;100.00;100624.83;1700773;83;21586;-70
2021/12/22 06:38:47;;;;;;;14.17;6.57;;;;;;;-10.59;100.00;100629.05;1694007;83;21116;-71
2021/12/22 06:41:14;;;;;;;13.37;5.83;;;;;;;-10.56;100.00;100634.30;1699610;83;21088;-70
2021/12/22 06:43:40;;;;;;;10.63;5.50;;;;;;;-10.52;100.00;100636.23;1681297;83;21113;-71
2021/12/22 06:46:07;;;;;;;15.10;6.27;;;;;;;-10.52;100.00;100634.95;1692245;83;21127;-70
2021/12/22 06:48:33;;;;;;;11.50;5.60;;;;;;;-10.51;100.00;100641.82;1695998;83;21139;-70
2021/12/22 06:51:00;;;;;;;13.27;5.90;;;;;;;-10.52;100.00;100636.23;1690354;83;21026;-70
2021/12/22 06:53:26;;;;;;;10.20;5.87;;;;;;;-10.48;100.00;100640.70;1708556;82;21073;-69
2021/12/22 06:55:53;;;;;;;11.43;5.87;;;;;;;-10.46;100.00;100649.31;1712357;82;21545;-70
2021/12/22 06:58:19;;;;;;;10.97;5.53;;;;;;;-10.49;100.00;100654.24;1702111;82;21119;-70
2021/12/22 07:00:46;;;;;;;12.80;6.23;;;;;;;-10.49;100.00;100649.15;1708182;82;21045;-69
2021/12/22 07:03:13;;;;;;;11.83;5.60;;;;;;;-10.51;100.00;100644.73;1711855;82;21082;-71
2021/12/22 07:05:40;;;;;;;8.97;5.10;;;;;;;-10.51;100.00;100650.73;1712233;82;21088;-68
2021/12/22 07:08:06;;;;;;;13.97;5.30;;;;;;;-10.51;100.00;100638.00;1705442;82;21086;-70
2021/12/22 07:10:33;;;;;;;10.03;5.17;;;;;;;-10.52;99.64;100650.23;1712057;82;21225;-69
2021/12/22 07:13:00;;;;;;;12.17;5.17;;;;;;;-10.55;99.30;100643.70;1711371;82;21026;-69
2021/12/22 07:15:27;;;;;;;7.90;4.37;;;;;;;-10.52;98.79;100648.96;1718383;82;21600;-69
2021/12/22 07:17:53;;;;;;;10.67;5.10;;;;;;;-10.50;98.51;100648.66;1703537;82;21077;-69
2021/12/22 07:20:20;;;;;;;8.00;4.07;;;;;;;-10.42;98.20;100657.61;1703517;82;21066;-70
2021/12/22 07:22:48;;;;;;;12.07;4.63;;;;;;;-10.19;98.37;100662.66;1706255;82;21359;-68
2021/12/22 07:25:18;;;;;;;9.00;4.43;;;;;;;-9.99;96.99;100663.71;1714088;82;21122;-70
2021/12/22 07:27:43;;;;;;;9.17;4.90;;;;;;;-9.47;96.82;100658.36;1716866;82;21065;-70
2021/12/22 07:30:13;;;;;;;7.67;4.50;;;;;;;-8.69;95.78;100654.20;1720711;82;21043;-70
2021/12/22 07:32:39;;;;;;;8.03;4.10;;;;;;;-7.84;95.16;100648.78;1714326;82;21074;-70
2021/12/22 07:35:24;;;;;;;7.97;3.80;;;;;;;-7.15;91.05;100649.66;1714576;82;21532;-71
2021/12/22 07:38:23;;;;;;;7.03;3.70;;;;;;;-6.44;88.14;100656.38;1714347;82;21156;-71
2021/12/22 07:40:51;;;;;;;6.50;3.63;;;;;;;-5.60;87.10;100644.17;1733588;82;21534;-70
2021/12/22 07:43:18;;;;;;;6.87;3.33;;;;;;;-4.53;81.52;100645.70;1720538;82;21058;-71
2021/12/22 07:45:44;;;;;;;6.40;3.55;;;;;;;-4.06;76.67;100643.73;1703712;82;21117;-72
2021/12/22 07:48:11;;;;;;;8.90;3.65;;;;;;;-3.72;73.41;100647.31;1706487;82;22138;-70
2021/12/22 07:50:38;;;;;;;6.85;3.45;;;;;;;-3.80;69.45;100645.81;1713845;82;21102;-72
2021/12/22 07:53:05;;;;;;;5.87;3.55;;;;;;;-4.10;68.69;100653.87;1730057;82;21060;-69
2021/12/22 07:55:32;;;;;;;4.90;2.95;;;;;;;-4.40;70.06;100656.38;1741776;80;21280;-70
2021/12/22 07:57:59;;;;;;;7.15;3.37;;;;;;;-4.66;69.22;100649.98;1730000;82;21364;-70
2021/12/22 08:00:25;;;;;;;5.62;3.25;;;;;;;-4.88;68.04;100652.23;1732839;82;22054;-71
2021/12/22 08:02:52;;;;;;;8.53;3.87;;;;;;;-4.93;66.89;100653.36;1736058;82;21077;-70
2021/12/22 08:05:18;;;;;;;5.53;3.17;;;;;;;-5.25;66.24;100648.41;1725460;82;21038;-70
2021/12/22 08:07:44;;;;;;;7.10;4.05;;;;;;;-5.62;66.07;100654.78;1671040;85;21093;-70
2021/12/22 08:10:11;;;;;;;7.90;4.47;;;;;;;-6.00;66.90;100645.72;1727648;82;22216;-70
2021/12/22 08:12:38;;;;;;;7.60;4.03;;;;;;;-6.25;67.49;100649.89;1726768;82;21123;-70
2021/12/22 08:15:06;;;;;;;8.87;4.20;;;;;;;-6.40;67.66;100650.56;1727842;82;21017;-71
2021/12/22 08:17:34;;;;;;;8.20;4.30;;;;;;;-6.20;69.12;100652.22;1728088;82;21010;-69
2021/12/22 08:20:03;;;;;;;10.60;5.00;;;;;;;-5.93;69.00;100648.95;1717491;82;21014;-68
2021/12/22 08:22:31;;;;;;;8.58;4.42;;;;;;;-5.86;68.22;100645.80;1717408;83;21108;-68
2021/12/22 08:24:57;;;;;;;9.37;4.10;;;;;;;-5.75;68.71;100644.50;1717643;83;21150;-69
2021/12/22 08:27:24;;;;;;;6.70;4.07;;;;;;;-5.73;67.60;100652.23;1727618;82;21616;-68
2021/12/22 08:29:51;;;;;;;9.77;5.03;;;;;;;-5.87;67.54;100641.45;1727905;82;21102;-68
2021/12/22 08:32:18;;;;;;;7.20;4.40;;;;;;;-6.20;65.94;100648.80;1728976;82;21045;-70
2021/12/22 08:34:47;;;;;;;7.63;4.10;;;;;;;-6.50;67.24;100654.45;1731250;82;21136;-67
2021/12/22 08:39:59;;;;;;;9.63;3.63;;;;;;;-7.30;68.63;100653.70;1722001;82;21638;-68
2021/12/22 08:42:26;;;;;;;8.97;4.47;;;;;;;-7.58;70.04;100655.88;1735009;82;21056;-69
2021/12/22 08:44:55;;;;;;;8.97;4.70;;;;;;;-7.85;71.05;100661.08;1735155;82;21055;-68
2021/12/22 08:47:21;;;;;;;6.50;3.73;;;;;;;-8.16;73.25;100669.44;1728819;82;21565;-69
2021/12/22 08:49:48;;;;;;;12.30;3.97;;;;;;;-8.33;71.36;100666.94;1721699;81;21113;-67
2021/12/22 08:52:14;;;;;;;7.63;4.80;;;;;;;-8.39;72.34;100662.84;1731501;82;21089;-67
2021/12/22 08:54:40;;;;;;;8.73;4.37;;;;;;;-8.50;72.00;100659.80;1727858;82;21481;-67
2021/12/22 08:57:07;;;;;;;8.23;4.50;;;;;;;-8.63;72.50;100662.95;1727775;82;21709;-67
2021/12/22 08:59:34;;;;;;;8.27;4.30;;;;;;;-8.69;75.38;100660.59;1727990;82;21623;-70
2021/12/22 09:02:01;;;;;;;9.27;4.47;;;;;;;-8.72;75.38;100663.38;1726767;82;21300;-72
2021/12/22 09:04:27;;;;;;;8.10;4.03;;;;;;;-8.81;73.30;100658.73;1739384;82;21101;-70
2021/12/22 09:06:54;;;;;;;5.60;3.50;;;;;;;-8.87;73.51;100660.97;1720504;82;21544;-71
2021/12/22 09:09:20;;;;;;;8.37;3.67;;;;;;;-8.96;73.12;100662.66;1716737;83;21101;-71
2021/12/22 09:11:48;;;;;;;9.80;4.63;;;;;;;-8.98;74.57;100667.21;1718496;82;21121;-70
2021/12/22 09:14:14;;;;;;;9.23;4.53;;;;;;;-8.95;75.33;100678.47;1734506;82;21140;-71
2021/12/22 09:16:43;;;;;;;6.77;3.97;;;;;;;-8.98;77.16;100662.98;1730520;82;21584;-70
2021/12/22 09:19:10;;;;;;;10.60;5.17;;;;;;;-8.94;76.34;100673.83;1717409;83;21148;-71
2021/12/22 09:21:37;;;;;;;10.03;4.23;;;;;;;-8.91;76.00;100666.71;1717153;83;21013;-71
2021/12/22 09:24:05;;;;;;;8.13;4.20;;;;;;;-8.91;76.55;100673.09;1717419;83;21616;-70
2021/12/22 09:26:32;;;;;;;10.07;4.73;;;;;;;-8.87;76.55;100663.11;1717466;83;21136;-70
2021/12/22 09:28:59;;;;;;;8.43;4.60;;;;;;;-8.82;76.79;100665.89;1717354;83;21023;-70
2021/12/22 09:31:25;;;;;;;9.23;4.33;;;;;;;-8.77;76.70;100661.88;1722127;82;21151;-70
2021/12/22 09:33:52;;;;;;;16.50;5.63;;;;;;;-8.75;78.48;100657.73;1740201;82;21137;-70
2021/12/22 09:36:19;;;;;;;10.23;5.17;;;;;;;-8.63;77.92;100657.85;1729709;82;21109;-68
2021/12/22 09:38:46;;;;;;;11.47;4.63;;;;;;;-8.59;75.00;100658.48;1735256;82;22199;-70
2021/12/22 09:41:13;;;;;;;9.93;4.33;;;;;;;-8.60;75.69;100652.88;1726104;82;21832;-71
2021/12/22 09:43:42;;;;;;;11.27;4.20;;;;;;;-8.57;74.75;100650.50;1723077;82;20994;-70
2021/12/22 09:46:12;;;;;;;9.13;4.20;;;;;;;-8.59;73.71;100658.08;1731613;82;21612;-70
2021/12/22 09:53:48;;;;;;;8.87;4.13;;;;;;;-8.59;72.05;100641.88;1719719;82;21074;-70
2021/12/22 09:56:16;;;;;;;8.43;4.08;;;;;;;-8.54;71.01;100642.97;1713355;82;21049;-73
2021/12/22 09:58:45;;;;;;;6.83;3.60;;;;;;;-8.53;71.63;100642.19;1711541;82;21113;-70
2021/12/22 10:01:12;;;;;;;11.10;4.23;;;;;;;-8.49;73.02;100638.95;1733014;82;21073;-68
2021/12/22 10:03:40;;;;;;;9.87;4.10;;;;;;;-8.44;72.61;100638.80;1714949;82;21034;-70
2021/12/22 10:06:08;;;;;;;8.63;4.13;;;;;;;-8.44;71.39;100647.73;1715912;82;21050;-70
2021/12/22 10:08:39;;;;;;;7.87;4.53;;;;;;;-8.41;72.04;100637.65;1711574;82;21504;-69
2021/12/22 10:11:11;;;;;;;9.10;5.08;;;;;;;-8.40;70.67;100630.86;1723650;82;21671;-69
2021/12/22 10:13:45;;;;;;;8.67;4.33;;;;;;;-8.40;70.67;100630.86;1719188;82;21105;-71
2021/12/22 10:16:20;;;;;;;8.73;5.03;;;;;;;-8.40;69.71;100624.06;1710244;82;21924;-69
2021/12/22 10:18:47;;;;;;;5.43;3.20;;;;;;;-8.15;69.46;100643.06;1719393;82;21050;-70
2021/12/22 10:21:26;;;;;;;7.53;4.20;;;;;;;-7.99;67.66;100635.30;1720044;82;21054;-70
2021/12/22 10:23:52;;;;;;;9.70;4.73;;;;;;;-7.74;65.91;100634.72;1706772;82;21086;-71
2021/12/22 10:26:25;;;;;;;8.80;4.00;;;;;;;-7.11;67.45;100627.19;1722605;82;21026;-71
2021/12/22 10:29:05;;;;;;;7.97;4.03;;;;;;;-6.31;65.96;100624.42;1715896;82;21621;-70
2021/12/22 10:31:45;;;;;;;8.10;4.00;;;;;;;-5.23;62.70;100624.08;1716234;82;21078;-70
2021/12/22 10:34:16;;;;;;;7.43;4.10;;;;;;;-4.85;59.51;100619.83;1712510;82;21067;-72
2021/12/22 10:36:52;;;;;;;10.37;3.93;;;;;;;-4.26;57.83;100625.10;1723165;82;20986;-71
2021/12/22 10:39:29;;;;;;;8.70;3.83;;;;;;;-3.48;56.38;100619.22;1712262;82;21031;-71
2021/12/22 10:42:09;;;;;;;8.08;4.80;;;;;;;-3.06;53.64;100615.65;1704403;82;21692;-70
2021/12/22 10:44:38;;;;;;;9.95;5.50;;;;;;;-3.66;52.50;100620.86;1713548;82;22029;-71
2021/12/22 10:47:19;;;;;;;12.23;5.30;;;;;;;-4.50;52.55;100634.23;1725069;82;21019;-69
2021/12/22 10:50:00;;;;;;;15.08;6.00;;;;;;;-4.99;54.66;100639.05;1724306;82;21074;-70
2021/12/22 10:52:26;;;;;;;9.67;5.20;;;;;;;-5.34;55.99;100642.53;1721089;81;21108;-72
2021/12/22 10:55:12;;;;;;;7.77;4.50;;;;;;;-5.76;56.62;100638.89;1705064;82;22001;-72
2021/12/22 10:57:41;;;;;;;4.33;2.90;;;;;;;-6.08;57.24;100647.10;1711623;82;21055;-70
2021/12/22 11:00:17;;;;;;;8.70;4.07;;;;;;;-6.66;58.58;100650.40;1704116;82;22225;-70
2021/12/22 11:02:50;;;;;;;7.10;4.30;;;;;;;-7.02;60.26;100653.17;1711615;82;21030;-71
2021/12/22 11:05:19;;;;;;;7.93;4.57;;;;;;;-7.18;62.17;100645.66;1713041;82;21683;-73
2021/12/22 11:07:45;;;;;;;8.10;4.73;;;;;;;-7.31;64.72;100630.62;1715784;82;21809;-71
2021/12/22 11:10:29;;;;;;;8.30;4.27;;;;;;;-7.33;65.73;100647.59;1708518;82;21117;-70
2021/12/22 11:13:02;;;;;;;7.03;4.50;;;;;;;-7.46;66.18;100645.75;1723554;82;21086;-72
2021/12/22 11:15:30;;;;;;;8.10;3.67;;;;;;;-7.48;68.81;100646.50;1703752;82;21061;-70
2021/12/22 11:17:56;;;;;;;11.47;4.60;;;;;;;-7.53;69.35;100645.02;1724589;82;21042;-69
2021/12/22 11:20:24;;;;;;;10.93;5.03;;;;;;;-7.53;70.51;100645.02;1720277;82;21565;-70
2021/12/22 11:23:02;;;;;;;9.50;5.37;;;;;;;-7.52;71.12;100650.63;1720288;82;21033;-70
2021/12/22 11:25:29;;;;;;;7.70;4.03;;;;;;;-7.58;74.13;100644.36;1708929;82;21042;-70
2021/12/22 11:27:57;;;;;;;9.33;4.40;;;;;;;-7.63;72.63;100635.20;1726150;82;21062;-70
2021/12/22 11:30:26;;;;;;;8.97;4.70;;;;;;;-7.65;74.77;100638.96;1723722;82;21070;-67
2021/12/22 11:32:57;;;;;;;9.03;4.53;;;;;;;-7.47;76.17;100627.39;1720130;82;21141;-67
2021/12/22 11:35:24;;;;;;;12.80;4.87;;;;;;;-7.27;72.00;100631.20;1708207;82;21573;-70
2021/12/22 11:37:50;;;;;;;8.93;4.60;;;;;;;-7.24;70.60;100634.77;1725385;82;21647;-69
2021/12/22 11:40:18;;;;;;;10.23;4.20;;;;;;;-7.25;74.89;100634.28;1707049;82;21010;-70
2021/12/22 11:42:44;;;;;;;8.57;4.23;;;;;;;-7.33;71.59;100635.66;1707485;82;21037;-69